sensor_id;sensor_type;location;lat;lon;timestamp;pressure;altitude;pressure_sealevel;temperature;humidity
55191;BME280;41070;50.360;18.742;2023-02-28T18:14:51;99897.58;;;-0.95;64.31
55191;BME280;41070;50.360;18.742;2023-02-28T18:17:19;99900.27;;;-0.97;64.28
55191;BME280;41070;50.360;18.742;2023-02-28T18:19:51;99899.96;;;-1.00;64.45
55191;BME280;41070;50.360;18.742;2023-02-28T18:22:29;99895.42;;;-1.01;64.09
55191;BME280;41070;50.360;18.742;2023-02-28T18:28:08;99898.39;;;-1.00;64.38
55191;BME280;41070;50.360;18.742;2023-02-28T18:30:55;99897.78;;;-1.04;64.74
55191;BME280;41070;50.360;18.742;2023-02-28T18:33:44;99897.67;;;-1.04;64.73
55191;BME280;41070;50.360;18.742;2023-02-28T18:36:29;99893.05;;;-1.07;64.91
55191;BME280;41070;50.360;18.742;2023-02-28T18:38:56;99893.55;;;-1.08;64.99
55191;BME280;41070;50.360;18.742;2023-02-28T18:41:24;99899.53;;;-1.11;65.12
55191;BME280;41070;50.360;18.742;2023-02-28T18:43:55;99900.64;;;-1.13;65.38
55191;BME280;41070;50.360;18.742;2023-02-28T18:46:24;99899.14;;;-1.15;65.37
55191;BME280;41070;50.360;18.742;2023-02-28T18:48:52;99896.91;;;-1.16;65.37
55191;BME280;41070;50.360;18.742;2023-02-28T18:51:24;99897.36;;;-1.17;65.67
55191;BME280;41070;50.360;18.742;2023-02-28T18:53:52;99901.54;;;-1.18;65.71
55191;BME280;41070;50.360;18.742;2023-02-28T18:56:22;99898.77;;;-1.24;65.94
55191;BME280;41070;50.360;18.742;2023-02-28T18:58:50;99899.52;;;-1.28;65.91
55191;BME280;41070;50.360;18.742;2023-02-28T19:01:32;99896.02;;;-1.30;66.14
55191;BME280;41070;50.360;18.742;2023-02-28T19:04:02;99896.38;;;-1.33;66.34
55191;BME280;41070;50.360;18.742;2023-02-28T19:06:30;99898.77;;;-1.36;66.33
55191;BME280;41070;50.360;18.742;2023-02-28T19:08:59;99897.39;;;-1.37;66.30
55191;BME280;41070;50.360;18.742;2023-02-28T19:11:26;99892.59;;;-1.38;66.36
55191;BME280;41070;50.360;18.742;2023-02-28T19:13:54;99891.78;;;-1.39;66.63
55191;BME280;41070;50.360;18.742;2023-02-28T19:16:33;99893.52;;;-1.40;66.62
55191;BME280;41070;50.360;18.742;2023-02-28T19:19:00;99894.73;;;-1.42;66.83
55191;BME280;41070;50.360;18.742;2023-02-28T19:21:27;99895.96;;;-1.45;66.60
55191;BME280;41070;50.360;18.742;2023-02-28T19:23:54;99893.84;;;-1.48;66.71
55191;BME280;41070;50.360;18.742;2023-02-28T19:26:22;99894.27;;;-1.51;66.96
55191;BME280;41070;50.360;18.742;2023-02-28T19:28:52;99892.58;;;-1.56;67.33
55191;BME280;41070;50.360;18.742;2023-02-28T19:31:24;99893.98;;;-1.62;67.35
55191;BME280;41070;50.360;18.742;2023-02-28T19:33:53;99892.85;;;-1.65;67.46
55191;BME280;41070;50.360;18.742;2023-02-28T19:36:21;99899.84;;;-1.70;67.80
55191;BME280;41070;50.360;18.742;2023-02-28T19:38:50;99894.25;;;-1.76;67.93
55191;BME280;41070;50.360;18.742;2023-02-28T19:41:18;99895.90;;;-1.82;68.23
55191;BME280;41070;50.360;18.742;2023-02-28T19:43:45;99897.48;;;-1.87;68.67
55191;BME280;41070;50.360;18.742;2023-02-28T19:46:13;99899.50;;;-1.90;68.72
55191;BME280;41070;50.360;18.742;2023-02-28T19:48:39;99895.91;;;-1.94;69.00
55191;BME280;41070;50.360;18.742;2023-02-28T19:51:09;99897.08;;;-1.96;69.07
55191;BME280;41070;50.360;18.742;2023-02-28T19:53:39;99897.13;;;-1.95;69.28
55191;BME280;41070;50.360;18.742;2023-02-28T19:56:07;99894.80;;;-1.94;69.20
55191;BME280;41070;50.360;18.742;2023-02-28T19:58:35;99894.55;;;-1.93;69.25
55191;BME280;41070;50.360;18.742;2023-02-28T20:01:10;99894.34;;;-1.93;69.33
55191;BME280;41070;50.360;18.742;2023-02-28T20:03:36;99896.28;;;-1.93;69.54
55191;BME280;41070;50.360;18.742;2023-02-28T20:06:07;99896.70;;;-1.96;69.42
55191;BME280;41070;50.360;18.742;2023-02-28T20:08:36;99895.67;;;-2.00;69.82
55191;BME280;41070;50.360;18.742;2023-02-28T20:11:12;99897.74;;;-2.03;69.83
55191;BME280;41070;50.360;18.742;2023-02-28T20:13:42;99891.09;;;-2.05;70.12
55191;BME280;41070;50.360;18.742;2023-02-28T20:16:11;99895.02;;;-2.07;70.21
55191;BME280;41070;50.360;18.742;2023-02-28T20:18:38;99897.15;;;-2.06;70.44
55191;BME280;41070;50.360;18.742;2023-02-28T20:21:09;99896.47;;;-2.04;70.41
55191;BME280;41070;50.360;18.742;2023-02-28T20:23:56;99896.48;;;-2.04;70.44
55191;BME280;41070;50.360;18.742;2023-02-28T20:26:23;99893.86;;;-2.08;70.40
55191;BME280;41070;50.360;18.742;2023-02-28T20:28:49;99893.61;;;-2.12;70.57
55191;BME280;41070;50.360;18.742;2023-02-28T20:31:17;99896.55;;;-2.16;70.58
55191;BME280;41070;50.360;18.742;2023-02-28T20:33:44;99896.58;;;-2.24;70.92
55191;BME280;41070;50.360;18.742;2023-02-28T20:36:11;99894.87;;;-2.29;71.15
55191;BME280;41070;50.360;18.742;2023-02-28T20:38:37;99894.99;;;-2.31;71.50
55191;BME280;41070;50.360;18.742;2023-02-28T20:41:04;99895.20;;;-2.31;71.89
55191;BME280;41070;50.360;18.742;2023-02-28T20:43:31;99894.41;;;-2.31;71.92
55191;BME280;41070;50.360;18.742;2023-02-28T20:45:59;99892.00;;;-2.33;72.10
55191;BME280;41070;50.360;18.742;2023-02-28T20:48:27;99887.91;;;-2.35;72.26
55191;BME280;41070;50.360;18.742;2023-02-28T20:50:55;99884.67;;;-2.37;72.11
55191;BME280;41070;50.360;18.742;2023-02-28T20:53:23;99887.79;;;-2.38;72.34
55191;BME280;41070;50.360;18.742;2023-02-28T20:55:56;99884.10;;;-2.39;72.66
55191;BME280;41070;50.360;18.742;2023-02-28T20:58:24;99886.92;;;-2.39;72.89
55191;BME280;41070;50.360;18.742;2023-02-28T21:01:12;99888.42;;;-2.40;72.89
55191;BME280;41070;50.360;18.742;2023-02-28T21:06:08;99882.55;;;-2.42;72.96
55191;BME280;41070;50.360;18.742;2023-02-28T21:08:35;99882.50;;;-2.44;73.20
55191;BME280;41070;50.360;18.742;2023-02-28T21:11:06;99884.47;;;-2.47;73.47
55191;BME280;41070;50.360;18.742;2023-02-28T21:13:36;99881.28;;;-2.49;73.57
55191;BME280;41070;50.360;18.742;2023-02-28T21:16:04;99881.61;;;-2.50;73.72
55191;BME280;41070;50.360;18.742;2023-02-28T21:18:33;99882.88;;;-2.51;73.64
55191;BME280;41070;50.360;18.742;2023-02-28T21:21:01;99878.73;;;-2.50;73.53
55191;BME280;41070;50.360;18.742;2023-02-28T21:23:28;99877.60;;;-2.49;73.81
55191;BME280;41070;50.360;18.742;2023-02-28T21:25:54;99876.90;;;-2.48;73.78
55191;BME280;41070;50.360;18.742;2023-02-28T21:28:20;99877.40;;;-2.46;73.86
55191;BME280;41070;50.360;18.742;2023-02-28T21:30:47;99878.18;;;-2.45;73.96
55191;BME280;41070;50.360;18.742;2023-02-28T21:33:13;99880.83;;;-2.46;73.83
55191;BME280;41070;50.360;18.742;2023-02-28T21:35:40;99880.41;;;-2.48;73.95
55191;BME280;41070;50.360;18.742;2023-02-28T21:38:06;99885.21;;;-2.49;74.07
55191;BME280;41070;50.360;18.742;2023-02-28T21:40:33;99879.80;;;-2.50;73.94
55191;BME280;41070;50.360;18.742;2023-02-28T21:42:59;99883.48;;;-2.51;74.19
55191;BME280;41070;50.360;18.742;2023-02-28T21:45:25;99884.19;;;-2.52;74.07
55191;BME280;41070;50.360;18.742;2023-02-28T21:47:53;99885.43;;;-2.55;74.24
55191;BME280;41070;50.360;18.742;2023-02-28T21:50:20;99886.04;;;-2.55;74.41
55191;BME280;41070;50.360;18.742;2023-02-28T21:52:47;99883.23;;;-2.56;74.49
55191;BME280;41070;50.360;18.742;2023-02-28T21:55:13;99883.57;;;-2.58;74.36
55191;BME280;41070;50.360;18.742;2023-02-28T21:57:39;99887.23;;;-2.60;74.43
55191;BME280;41070;50.360;18.742;2023-02-28T22:00:07;99890.47;;;-2.63;74.40
55191;BME280;41070;50.360;18.742;2023-02-28T22:02:36;99896.59;;;-2.66;74.42
55191;BME280;41070;50.360;18.742;2023-02-28T22:05:03;99897.01;;;-2.68;74.48
55191;BME280;41070;50.360;18.742;2023-02-28T22:07:29;99897.39;;;-2.71;74.86
55191;BME280;41070;50.360;18.742;2023-02-28T22:09:55;99901.86;;;-2.74;74.97
55191;BME280;41070;50.360;18.742;2023-02-28T22:12:21;99904.89;;;-2.77;75.23
55191;BME280;41070;50.360;18.742;2023-02-28T22:14:48;99903.20;;;-2.78;75.65
55191;BME280;41070;50.360;18.742;2023-02-28T22:17:14;99903.28;;;-2.81;76.13
55191;BME280;41070;50.360;18.742;2023-02-28T22:19:40;99899.20;;;-2.83;76.47
55191;BME280;41070;50.360;18.742;2023-02-28T22:22:07;99898.17;;;-2.82;76.47
55191;BME280;41070;50.360;18.742;2023-02-28T22:24:33;99893.95;;;-2.83;76.81
55191;BME280;41070;50.360;18.742;2023-02-28T22:26:59;99892.00;;;-2.85;77.12
55191;BME280;41070;50.360;18.742;2023-02-28T22:29:25;99898.09;;;-2.87;77.43
55191;BME280;41070;50.360;18.742;2023-02-28T22:31:52;99903.36;;;-2.89;77.11
55191;BME280;41070;50.360;18.742;2023-02-28T22:34:18;99907.14;;;-2.95;77.54
55191;BME280;41070;50.360;18.742;2023-02-28T22:36:45;99909.71;;;-3.02;78.24
55191;BME280;41070;50.360;18.742;2023-02-28T22:39:11;99912.48;;;-3.07;78.69
55191;BME280;41070;50.360;18.742;2023-02-28T22:41:38;99917.17;;;-3.11;78.63
55191;BME280;41070;50.360;18.742;2023-02-28T22:44:06;99917.67;;;-3.14;78.70
55191;BME280;41070;50.360;18.742;2023-02-28T22:46:33;99916.34;;;-3.17;78.66
55191;BME280;41070;50.360;18.742;2023-02-28T22:49:01;99912.33;;;-3.18;78.46
55191;BME280;41070;50.360;18.742;2023-02-28T22:51:29;99914.54;;;-3.18;78.39
55191;BME280;41070;50.360;18.742;2023-02-28T22:53:56;99913.73;;;-3.18;78.30
55191;BME280;41070;50.360;18.742;2023-02-28T22:56:25;99918.90;;;-3.19;78.51
55191;BME280;41070;50.360;18.742;2023-02-28T22:58:54;99921.84;;;-3.19;78.36
55191;BME280;41070;50.360;18.742;2023-02-28T23:01:22;99919.00;;;-3.17;78.15
55191;BME280;41070;50.360;18.742;2023-02-28T23:03:49;99919.63;;;-3.15;78.25
55191;BME280;41070;50.360;18.742;2023-02-28T23:06:28;99922.12;;;-3.14;78.19
55191;BME280;41070;50.360;18.742;2023-02-28T23:08:58;99926.25;;;-3.13;78.25
55191;BME280;41070;50.360;18.742;2023-02-28T23:11:28;99930.48;;;-3.13;78.65
55191;BME280;41070;50.360;18.742;2023-02-28T23:13:55;99930.73;;;-3.14;78.83
55191;BME280;41070;50.360;18.742;2023-02-28T23:16:30;99929.23;;;-3.13;78.67
55191;BME280;41070;50.360;18.742;2023-02-28T23:18:59;99928.52;;;-3.12;78.75
55191;BME280;41070;50.360;18.742;2023-02-28T23:21:26;99929.19;;;-3.13;78.63
55191;BME280;41070;50.360;18.742;2023-02-28T23:23:53;99930.25;;;-3.11;78.47
55191;BME280;41070;50.360;18.742;2023-02-28T23:26:21;99931.77;;;-3.10;78.31
55191;BME280;41070;50.360;18.742;2023-02-28T23:28:50;99930.36;;;-3.06;77.93
55191;BME280;41070;50.360;18.742;2023-02-28T23:31:17;99930.69;;;-3.04;77.74
55191;BME280;41070;50.360;18.742;2023-02-28T23:33:43;99930.17;;;-3.01;77.53
55191;BME280;41070;50.360;18.742;2023-02-28T23:36:13;99928.14;;;-2.99;77.35
55191;BME280;41070;50.360;18.742;2023-02-28T23:38:45;99925.20;;;-3.00;77.24
55191;BME280;41070;50.360;18.742;2023-02-28T23:41:13;99920.42;;;-2.98;76.84
55191;BME280;41070;50.360;18.742;2023-02-28T23:43:39;99915.13;;;-2.96;77.01
55191;BME280;41070;50.360;18.742;2023-02-28T23:46:06;99907.60;;;-2.93;76.78
55191;BME280;41070;50.360;18.742;2023-02-28T23:48:33;99910.95;;;-2.91;76.86
55191;BME280;41070;50.360;18.742;2023-02-28T23:51:03;99913.94;;;-2.91;76.41
55191;BME280;41070;50.360;18.742;2023-02-28T23:53:34;99914.14;;;-2.94;76.42
55191;BME280;41070;50.360;18.742;2023-02-28T23:56:00;99913.39;;;-2.96;76.52
55191;BME280;41070;50.360;18.742;2023-02-28T23:58:28;99909.21;;;-2.96;76.47
